sensor_id;sensor_type;location;lat;lon;timestamp;pressure;altitude;pressure_sealevel;temperature;humidity
76195;BME280;64964;48.694;21.206;2023-04-03T00:00:41;97785.41;;;4.04;63.45
76195;BME280;64964;48.694;21.206;2023-04-03T00:03:06;97786.38;;;4.03;63.63
76195;BME280;64964;48.694;21.206;2023-04-03T00:05:32;97789.25;;;3.99;63.58
76195;BME280;64964;48.694;21.206;2023-04-03T00:07:57;97786.38;;;4.03;63.14
76195;BME280;64964;48.694;21.206;2023-04-03T00:10:23;97778.94;;;3.98;63.37
76195;BME280;64964;48.694;21.206;2023-04-03T00:12:48;97781.41;;;3.99;63.08
76195;BME280;64964;48.694;21.206;2023-04-03T00:15:14;97775.78;;;3.94;63.18
76195;BME280;64964;48.694;21.206;2023-04-03T00:17:39;97785.25;;;3.95;63.14
76195;BME280;64964;48.694;21.206;2023-04-03T00:20:05;97785.66;;;3.91;63.63
76195;BME280;64964;48.694;21.206;2023-04-03T00:22:30;97779.47;;;3.92;63.04
76195;BME280;64964;48.694;21.206;2023-04-03T00:24:56;97783.69;;;3.83;63.74
76195;BME280;64964;48.694;21.206;2023-04-03T00:27:21;97780.00;;;3.86;63.21
76195;BME280;64964;48.694;21.206;2023-04-03T00:29:47;97766.38;;;3.82;63.36
76195;BME280;64964;48.694;21.206;2023-04-03T00:32:13;97780.41;;;3.81;63.19
76195;BME280;64964;48.694;21.206;2023-04-03T00:34:38;97776.13;;;3.80;63.31
76195;BME280;64964;48.694;21.206;2023-04-03T00:37:04;97785.19;;;3.76;63.51
76195;BME280;64964;48.694;21.206;2023-04-03T00:39:29;97787.94;;;3.74;63.63
76195;BME280;64964;48.694;21.206;2023-04-03T00:41:55;97787.69;;;3.78;63.33
76195;BME280;64964;48.694;21.206;2023-04-03T00:46:58;97792.59;;;3.71;63.48
76195;BME280;64964;48.694;21.206;2023-04-03T00:49:24;97782.13;;;3.71;63.36
76195;BME280;64964;48.694;21.206;2023-04-03T00:51:49;97788.59;;;3.67;63.64
76195;BME280;64964;48.694;21.206;2023-04-03T00:54:16;97787.91;;;3.65;63.85
76195;BME280;64964;48.694;21.206;2023-04-03T00:56:43;97790.53;;;3.65;63.78
76195;BME280;64964;48.694;21.206;2023-04-03T00:59:15;97788.16;;;3.62;63.86
76195;BME280;64964;48.694;21.206;2023-04-03T01:01:42;97783.66;;;3.64;63.66
76195;BME280;64964;48.694;21.206;2023-04-03T01:04:30;97783.47;;;3.56;64.13
76195;BME280;64964;48.694;21.206;2023-04-03T01:06:59;97788.41;;;3.59;63.86
76195;BME280;64964;48.694;21.206;2023-04-03T01:09:26;97790.75;;;3.52;64.41
76195;BME280;64964;48.694;21.206;2023-04-03T01:11:53;97785.22;;;3.55;63.88
76195;BME280;64964;48.694;21.206;2023-04-03T01:14:18;97790.47;;;3.55;63.72
76195;BME280;64964;48.694;21.206;2023-04-03T01:16:52;97774.25;;;3.52;64.25
76195;BME280;64964;48.694;21.206;2023-04-03T01:19:19;97787.56;;;3.48;63.97
76195;BME280;64964;48.694;21.206;2023-04-03T01:22:05;97784.50;;;3.43;64.43
76195;BME280;64964;48.694;21.206;2023-04-03T01:24:39;97786.72;;;3.48;64.06
76195;BME280;64964;48.694;21.206;2023-04-03T01:27:06;97779.00;;;3.46;64.47
76195;BME280;64964;48.694;21.206;2023-04-03T01:29:32;97785.09;;;3.47;64.16
76195;BME280;64964;48.694;21.206;2023-04-03T01:31:59;97784.63;;;3.42;64.83
76195;BME280;64964;48.694;21.206;2023-04-03T01:34:26;97789.03;;;3.41;64.53
76195;BME280;64964;48.694;21.206;2023-04-03T01:36:53;97787.38;;;3.40;64.22
76195;BME280;64964;48.694;21.206;2023-04-03T01:39:19;97789.16;;;3.40;64.30
76195;BME280;64964;48.694;21.206;2023-04-03T01:41:45;97795.47;;;3.37;64.72
76195;BME280;64964;48.694;21.206;2023-04-03T01:44:11;97799.28;;;3.33;64.78
76195;BME280;64964;48.694;21.206;2023-04-03T01:46:36;97806.06;;;3.36;64.44
76195;BME280;64964;48.694;21.206;2023-04-03T01:49:03;97809.75;;;3.33;64.77
76195;BME280;64964;48.694;21.206;2023-04-03T01:51:29;97798.84;;;3.28;64.95
76195;BME280;64964;48.694;21.206;2023-04-03T01:53:54;97805.72;;;3.29;64.62
76195;BME280;64964;48.694;21.206;2023-04-03T01:56:20;97816.31;;;3.28;64.91
76195;BME280;64964;48.694;21.206;2023-04-03T01:58:45;97796.50;;;3.25;64.83
76195;BME280;64964;48.694;21.206;2023-04-03T02:01:10;97809.31;;;3.28;64.54
76195;BME280;64964;48.694;21.206;2023-04-03T02:03:36;97812.88;;;3.27;64.86
76195;BME280;64964;48.694;21.206;2023-04-03T02:06:01;97809.25;;;3.18;65.30
76195;BME280;64964;48.694;21.206;2023-04-03T02:08:27;97818.75;;;3.19;64.92
76195;BME280;64964;48.694;21.206;2023-04-03T02:10:52;97810.91;;;3.19;64.83
76195;BME280;64964;48.694;21.206;2023-04-03T02:13:18;97822.03;;;3.21;64.75
76195;BME280;64964;48.694;21.206;2023-04-03T02:15:44;97822.19;;;3.20;65.00
76195;BME280;64964;48.694;21.206;2023-04-03T02:18:11;97818.59;;;3.21;64.83
76195;BME280;64964;48.694;21.206;2023-04-03T02:20:36;97833.47;;;3.20;64.58
76195;BME280;64964;48.694;21.206;2023-04-03T02:23:02;97826.72;;;3.18;64.92
76195;BME280;64964;48.694;21.206;2023-04-03T02:25:28;97827.53;;;3.18;64.99
76195;BME280;64964;48.694;21.206;2023-04-03T02:27:53;97825.88;;;3.17;64.78
76195;BME280;64964;48.694;21.206;2023-04-03T02:30:19;97827.41;;;3.20;64.31
76195;BME280;64964;48.694;21.206;2023-04-03T02:32:44;97835.03;;;3.12;65.16
76195;BME280;64964;48.694;21.206;2023-04-03T02:35:11;97833.25;;;3.12;64.75
76195;BME280;64964;48.694;21.206;2023-04-03T02:37:37;97834.22;;;3.11;64.51
76195;BME280;64964;48.694;21.206;2023-04-03T02:40:03;97838.47;;;3.12;64.62
76195;BME280;64964;48.694;21.206;2023-04-03T02:42:29;97840.84;;;3.15;64.43
76195;BME280;64964;48.694;21.206;2023-04-03T02:44:54;97843.84;;;3.11;64.60
76195;BME280;64964;48.694;21.206;2023-04-03T02:47:20;97851.78;;;3.09;64.48
76195;BME280;64964;48.694;21.206;2023-04-03T02:49:46;97850.03;;;3.10;64.59
76195;BME280;64964;48.694;21.206;2023-04-03T02:52:13;97863.91;;;3.10;64.47
76195;BME280;64964;48.694;21.206;2023-04-03T02:54:38;97847.78;;;3.05;64.58
76195;BME280;64964;48.694;21.206;2023-04-03T02:57:03;97849.44;;;3.06;64.43
76195;BME280;64964;48.694;21.206;2023-04-03T02:59:29;97860.00;;;3.05;64.46
76195;BME280;64964;48.694;21.206;2023-04-03T03:01:55;97864.66;;;3.01;64.51
76195;BME280;64964;48.694;21.206;2023-04-03T03:04:21;97862.31;;;2.98;64.71
76195;BME280;64964;48.694;21.206;2023-04-03T03:06:47;97872.63;;;2.99;64.77
76195;BME280;64964;48.694;21.206;2023-04-03T03:09:12;97868.59;;;2.95;64.73
76195;BME280;64964;48.694;21.206;2023-04-03T03:11:38;97863.50;;;2.94;64.79
76195;BME280;64964;48.694;21.206;2023-04-03T03:14:04;97865.88;;;2.97;64.47
76195;BME280;64964;48.694;21.206;2023-04-03T03:16:29;97870.38;;;2.95;65.11
76195;BME280;64964;48.694;21.206;2023-04-03T03:18:55;97866.34;;;2.91;64.83
76195;BME280;64964;48.694;21.206;2023-04-03T03:21:20;97858.97;;;2.96;64.55
76195;BME280;64964;48.694;21.206;2023-04-03T03:23:46;97857.19;;;2.96;64.56
76195;BME280;64964;48.694;21.206;2023-04-03T03:26:11;97854.03;;;2.93;64.80
76195;BME280;64964;48.694;21.206;2023-04-03T03:28:38;97863.25;;;2.97;64.45
76195;BME280;64964;48.694;21.206;2023-04-03T03:31:03;97861.00;;;2.92;64.53
76195;BME280;64964;48.694;21.206;2023-04-03T03:33:29;97865.19;;;2.84;65.13
76195;BME280;64964;48.694;21.206;2023-04-03T03:35:55;97864.38;;;2.83;64.95
76195;BME280;64964;48.694;21.206;2023-04-03T03:38:21;97864.50;;;2.82;65.52
76195;BME280;64964;48.694;21.206;2023-04-03T03:40:47;97863.53;;;2.83;65.54
76195;BME280;64964;48.694;21.206;2023-04-03T03:43:14;97865.69;;;2.78;65.99
76195;BME280;64964;48.694;21.206;2023-04-03T03:45:39;97859.06;;;2.73;66.01
76195;BME280;64964;48.694;21.206;2023-04-03T03:48:05;97861.34;;;2.67;66.64
76195;BME280;64964;48.694;21.206;2023-04-03T03:50:30;97854.84;;;2.61;66.95
76195;BME280;64964;48.694;21.206;2023-04-03T03:52:56;97861.97;;;2.59;67.03
76195;BME280;64964;48.694;21.206;2023-04-03T03:55:21;97855.66;;;2.62;66.58
76195;BME280;64964;48.694;21.206;2023-04-03T03:57:47;97851.25;;;2.62;66.51
76195;BME280;64964;48.694;21.206;2023-04-03T04:00:13;97856.41;;;2.53;67.04
76195;BME280;64964;48.694;21.206;2023-04-03T04:02:38;97855.91;;;2.59;66.23
76195;BME280;64964;48.694;21.206;2023-04-03T04:05:04;97856.16;;;2.56;66.35
76195;BME280;64964;48.694;21.206;2023-04-03T04:07:29;97849.84;;;2.58;66.34
76195;BME280;64964;48.694;21.206;2023-04-03T04:09:54;97855.56;;;2.52;66.63
76195;BME280;64964;48.694;21.206;2023-04-03T04:12:20;97856.41;;;2.53;66.57
76195;BME280;64964;48.694;21.206;2023-04-03T04:14:47;97852.00;;;2.53;66.76
76195;BME280;64964;48.694;21.206;2023-04-03T04:17:13;97858.88;;;2.54;66.76
76195;BME280;64964;48.694;21.206;2023-04-03T04:19:38;97860.44;;;2.57;66.78
76195;BME280;64964;48.694;21.206;2023-04-03T04:22:04;97864.69;;;2.58;67.12
76195;BME280;64964;48.694;21.206;2023-04-03T04:24:29;97862.44;;;2.53;67.38
76195;BME280;64964;48.694;21.206;2023-04-03T04:26:54;97861.25;;;2.57;67.48
76195;BME280;64964;48.694;21.206;2023-04-03T04:29:20;97851.53;;;2.59;67.31
76195;BME280;64964;48.694;21.206;2023-04-03T04:31:46;97863.50;;;2.62;67.02
76195;BME280;64964;48.694;21.206;2023-04-03T04:34:11;97854.47;;;2.55;67.26
76195;BME280;64964;48.694;21.206;2023-04-03T04:36:38;97859.22;;;2.61;67.02
76195;BME280;64964;48.694;21.206;2023-04-03T04:39:03;97870.34;;;2.63;67.21
76195;BME280;64964;48.694;21.206;2023-04-03T04:41:29;97863.50;;;2.62;67.15
76195;BME280;64964;48.694;21.206;2023-04-03T04:43:55;97878.31;;;2.72;66.74
76195;BME280;64964;48.694;21.206;2023-04-03T04:46:51;97876.50;;;2.73;66.77
76195;BME280;64964;48.694;21.206;2023-04-03T04:49:19;97872.00;;;2.75;67.06
76195;BME280;64964;48.694;21.206;2023-04-03T04:51:44;97884.41;;;2.94;66.21
76195;BME280;64964;48.694;21.206;2023-04-03T04:54:10;97876.41;;;3.48;65.43
76195;BME280;64964;48.694;21.206;2023-04-03T04:56:35;97880.34;;;4.15;64.09
76195;BME280;64964;48.694;21.206;2023-04-03T04:59:01;97881.56;;;4.81;63.07
76195;BME280;64964;48.694;21.206;2023-04-03T05:01:26;97876.78;;;5.15;61.33
76195;BME280;64964;48.694;21.206;2023-04-03T05:03:52;97874.84;;;5.36;59.68
76195;BME280;64964;48.694;21.206;2023-04-03T05:06:17;97891.25;;;5.38;58.38
76195;BME280;64964;48.694;21.206;2023-04-03T05:08:42;97884.94;;;5.31;57.93
76195;BME280;64964;48.694;21.206;2023-04-03T05:11:08;97890.84;;;5.53;58.02
76195;BME280;64964;48.694;21.206;2023-04-03T05:13:33;97883.25;;;5.49;57.89
76195;BME280;64964;48.694;21.206;2023-04-03T05:15:58;97892.91;;;5.20;57.65
76195;BME280;64964;48.694;21.206;2023-04-03T05:18:24;97912.81;;;5.22;58.57
76195;BME280;64964;48.694;21.206;2023-04-03T05:20:50;97898.41;;;5.27;58.86
76195;BME280;64964;48.694;21.206;2023-04-03T05:23:18;97910.72;;;5.16;58.27
76195;BME280;64964;48.694;21.206;2023-04-03T05:25:44;97913.34;;;5.07;58.32
76195;BME280;64964;48.694;21.206;2023-04-03T05:28:11;97910.69;;;4.87;58.06
76195;BME280;64964;48.694;21.206;2023-04-03T05:30:36;97910.13;;;4.84;58.69
76195;BME280;64964;48.694;21.206;2023-04-03T05:33:01;97905.53;;;4.66;58.62
76195;BME280;64964;48.694;21.206;2023-04-03T05:35:27;97922.06;;;4.57;58.74
76195;BME280;64964;48.694;21.206;2023-04-03T05:37:52;97928.28;;;4.66;59.47
76195;BME280;64964;48.694;21.206;2023-04-03T05:40:18;97920.13;;;4.59;59.88
76195;BME280;64964;48.694;21.206;2023-04-03T05:42:44;97918.19;;;4.52;59.46
76195;BME280;64964;48.694;21.206;2023-04-03T05:45:09;97918.88;;;4.54;60.14
76195;BME280;64964;48.694;21.206;2023-04-03T05:47:35;97925.19;;;4.41;60.00
76195;BME280;64964;48.694;21.206;2023-04-03T05:50:00;97926.13;;;4.31;60.30
76195;BME280;64964;48.694;21.206;2023-04-03T05:52:38;97920.50;;;4.35;60.34
76195;BME280;64964;48.694;21.206;2023-04-03T05:55:05;97922.22;;;4.25;60.77
76195;BME280;64964;48.694;21.206;2023-04-03T05:57:31;97925.94;;;4.22;60.91
76195;BME280;64964;48.694;21.206;2023-04-03T05:59:56;97925.66;;;4.25;60.88
76195;BME280;64964;48.694;21.206;2023-04-03T06:02:23;97928.56;;;4.22;61.50
76195;BME280;64964;48.694;21.206;2023-04-03T06:04:49;97928.00;;;4.19;60.90
76195;BME280;64964;48.694;21.206;2023-04-03T06:07:17;97946.41;;;4.17;61.71
76195;BME280;64964;48.694;21.206;2023-04-03T06:09:44;97930.25;;;4.33;61.54
76195;BME280;64964;48.694;21.206;2023-04-03T06:12:10;97941.28;;;4.37;61.04
76195;BME280;64964;48.694;21.206;2023-04-03T06:14:36;97939.41;;;4.48;60.31
76195;BME280;64964;48.694;21.206;2023-04-03T06:17:03;97934.16;;;4.48;60.80
76195;BME280;64964;48.694;21.206;2023-04-03T06:19:29;97945.78;;;4.56;59.93
76195;BME280;64964;48.694;21.206;2023-04-03T06:21:55;97956.09;;;4.57;59.83
76195;BME280;64964;48.694;21.206;2023-04-03T06:24:21;97948.06;;;5.09;58.96
76195;BME280;64964;48.694;21.206;2023-04-03T06:26:49;97946.84;;;5.61;57.85
76195;BME280;64964;48.694;21.206;2023-04-03T06:29:16;97952.09;;;5.61;55.85
76195;BME280;64964;48.694;21.206;2023-04-03T06:31:42;97949.63;;;5.69;56.03
76195;BME280;64964;48.694;21.206;2023-04-03T06:34:09;97948.19;;;5.85;55.63
76195;BME280;64964;48.694;21.206;2023-04-03T06:36:35;97957.59;;;6.07;55.06
76195;BME280;64964;48.694;21.206;2023-04-03T06:39:00;97960.69;;;6.30;53.46
76195;BME280;64964;48.694;21.206;2023-04-03T06:41:26;97968.38;;;6.41;52.82
76195;BME280;64964;48.694;21.206;2023-04-03T06:43:52;97966.53;;;6.61;52.46
76195;BME280;64964;48.694;21.206;2023-04-03T06:46:20;97973.75;;;7.22;50.80
76195;BME280;64964;48.694;21.206;2023-04-03T06:48:46;97972.78;;;7.77;49.28
76195;BME280;64964;48.694;21.206;2023-04-03T06:51:25;97973.97;;;8.00;49.44
76195;BME280;64964;48.694;21.206;2023-04-03T06:53:52;97974.56;;;7.94;49.31
76195;BME280;64964;48.694;21.206;2023-04-03T06:56:19;97984.91;;;7.69;47.28
76195;BME280;64964;48.694;21.206;2023-04-03T06:58:44;97979.88;;;7.58;49.14
76195;BME280;64964;48.694;21.206;2023-04-03T07:01:12;97980.75;;;7.31;48.21
76195;BME280;64964;48.694;21.206;2023-04-03T07:03:38;97994.59;;;7.15;49.46
76195;BME280;64964;48.694;21.206;2023-04-03T07:06:05;97993.75;;;6.87;49.16
76195;BME280;64964;48.694;21.206;2023-04-03T07:08:31;97979.22;;;6.65;49.15
76195;BME280;64964;48.694;21.206;2023-04-03T07:10:57;97998.44;;;6.56;50.69
76195;BME280;64964;48.694;21.206;2023-04-03T07:13:22;97976.59;;;6.28;50.33
76195;BME280;64964;48.694;21.206;2023-04-03T07:15:47;97985.31;;;6.09;50.58
76195;BME280;64964;48.694;21.206;2023-04-03T07:18:13;97999.56;;;6.07;51.84
76195;BME280;64964;48.694;21.206;2023-04-03T07:20:39;98000.53;;;5.77;52.54
76195;BME280;64964;48.694;21.206;2023-04-03T07:23:05;98004.16;;;5.56;53.09
76195;BME280;64964;48.694;21.206;2023-04-03T07:25:31;98008.53;;;5.36;53.99
76195;BME280;64964;48.694;21.206;2023-04-03T07:27:56;98003.97;;;5.29;54.36
76195;BME280;64964;48.694;21.206;2023-04-03T07:30:22;97987.94;;;5.03;54.73
76195;BME280;64964;48.694;21.206;2023-04-03T07:32:48;97995.75;;;4.93;54.62
76195;BME280;64964;48.694;21.206;2023-04-03T07:35:13;97998.66;;;4.90;54.77
76195;BME280;64964;48.694;21.206;2023-04-03T07:37:38;97999.59;;;4.89;55.31
76195;BME280;64964;48.694;21.206;2023-04-03T07:40:05;97997.28;;;4.86;54.45
76195;BME280;64964;48.694;21.206;2023-04-03T07:42:34;98014.41;;;4.99;54.61
76195;BME280;64964;48.694;21.206;2023-04-03T07:45:00;98009.00;;;5.01;53.15
76195;BME280;64964;48.694;21.206;2023-04-03T07:47:26;98007.50;;;4.98;53.86
76195;BME280;64964;48.694;21.206;2023-04-03T07:49:51;98021.16;;;5.02;54.64
76195;BME280;64964;48.694;21.206;2023-04-03T07:52:16;98008.75;;;5.14;53.83
76195;BME280;64964;48.694;21.206;2023-04-03T07:54:42;98011.13;;;5.17;53.90
76195;BME280;64964;48.694;21.206;2023-04-03T07:57:07;98003.41;;;5.25;54.02
76195;BME280;64964;48.694;21.206;2023-04-03T07:59:33;98013.06;;;5.24;53.23
76195;BME280;64964;48.694;21.206;2023-04-03T08:01:58;98020.22;;;5.13;52.32
76195;BME280;64964;48.694;21.206;2023-04-03T08:04:24;98021.50;;;5.18;53.04
76195;BME280;64964;48.694;21.206;2023-04-03T08:06:51;98020.38;;;5.21;52.79
76195;BME280;64964;48.694;21.206;2023-04-03T08:09:17;98026.44;;;5.12;51.81
76195;BME280;64964;48.694;21.206;2023-04-03T08:11:44;98034.97;;;5.14;52.43
76195;BME280;64964;48.694;21.206;2023-04-03T08:14:09;98032.31;;;5.04;51.79
76195;BME280;64964;48.694;21.206;2023-04-03T08:16:40;98024.03;;;4.99;52.75
76195;BME280;64964;48.694;21.206;2023-04-03T08:19:06;98031.44;;;4.84;52.51
76195;BME280;64964;48.694;21.206;2023-04-03T08:21:32;98036.28;;;4.89;52.38
76195;BME280;64964;48.694;21.206;2023-04-03T08:23:58;98036.00;;;4.82;52.95
76195;BME280;64964;48.694;21.206;2023-04-03T08:26:23;98043.97;;;4.81;52.90
76195;BME280;64964;48.694;21.206;2023-04-03T08:28:49;98053.50;;;4.82;53.21
76195;BME280;64964;48.694;21.206;2023-04-03T08:31:17;98042.06;;;4.83;52.64
76195;BME280;64964;48.694;21.206;2023-04-03T08:33:44;98055.13;;;4.73;52.18
76195;BME280;64964;48.694;21.206;2023-04-03T08:36:20;98061.88;;;4.75;52.69
76195;BME280;64964;48.694;21.206;2023-04-03T08:38:46;98049.38;;;4.89;52.77
76195;BME280;64964;48.694;21.206;2023-04-03T08:47:02;98052.44;;;5.44;50.73
76195;BME280;64964;48.694;21.206;2023-04-03T08:49:58;98047.34;;;5.62;50.82
76195;BME280;64964;48.694;21.206;2023-04-03T08:52:47;98050.78;;;5.72;50.28
76195;BME280;64964;48.694;21.206;2023-04-03T08:55:30;98066.53;;;5.72;50.23
76195;BME280;64964;48.694;21.206;2023-04-03T08:58:12;98041.97;;;5.73;50.06
76195;BME280;64964;48.694;21.206;2023-04-03T09:00:58;98052.16;;;5.66;49.88
76195;BME280;64964;48.694;21.206;2023-04-03T09:03:29;98058.91;;;5.59;49.63
76195;BME280;64964;48.694;21.206;2023-04-03T09:06:11;98042.09;;;5.52;49.46
76195;BME280;64964;48.694;21.206;2023-04-03T09:16:58;98043.34;;;5.96;50.16
76195;BME280;64964;48.694;21.206;2023-04-03T09:22:23;98048.34;;;6.66;47.48
76195;BME280;64964;48.694;21.206;2023-04-03T09:24:59;98053.44;;;6.67;47.44
76195;BME280;64964;48.694;21.206;2023-04-03T09:27:27;98045.94;;;6.72;47.47
76195;BME280;64964;48.694;21.206;2023-04-03T09:29:55;98055.94;;;6.69;46.89
76195;BME280;64964;48.694;21.206;2023-04-03T09:32:32;98077.16;;;6.85;48.18
76195;BME280;64964;48.694;21.206;2023-04-03T09:35:02;98056.75;;;7.07;48.03
76195;BME280;64964;48.694;21.206;2023-04-03T09:37:39;98049.47;;;7.18;46.99
76195;BME280;64964;48.694;21.206;2023-04-03T09:40:12;98048.47;;;7.29;45.46
76195;BME280;64964;48.694;21.206;2023-04-03T09:42:53;98058.88;;;7.66;47.11
76195;BME280;64964;48.694;21.206;2023-04-03T09:45:27;98055.03;;;7.96;45.84
76195;BME280;64964;48.694;21.206;2023-04-03T09:50:37;98059.69;;;8.38;45.72
76195;BME280;64964;48.694;21.206;2023-04-03T09:53:11;98064.38;;;8.53;44.52
76195;BME280;64964;48.694;21.206;2023-04-03T09:55:50;98057.72;;;8.66;43.80
76195;BME280;64964;48.694;21.206;2023-04-03T09:58:27;98082.69;;;8.54;43.33
76195;BME280;64964;48.694;21.206;2023-04-03T10:00:58;98083.28;;;8.48;44.04
76195;BME280;64964;48.694;21.206;2023-04-03T10:03:28;98078.69;;;8.50;44.73
76195;BME280;64964;48.694;21.206;2023-04-03T10:05:54;98087.94;;;8.54;44.83
76195;BME280;64964;48.694;21.206;2023-04-03T10:08:21;98101.06;;;8.46;45.29
76195;BME280;64964;48.694;21.206;2023-04-03T10:11:06;98110.03;;;8.17;44.24
76195;BME280;64964;48.694;21.206;2023-04-03T10:13:31;98095.06;;;8.00;44.34
76195;BME280;64964;48.694;21.206;2023-04-03T10:16:06;98099.88;;;7.87;44.69
76195;BME280;64964;48.694;21.206;2023-04-03T10:18:43;98093.47;;;7.89;44.42
76195;BME280;64964;48.694;21.206;2023-04-03T10:21:15;98097.59;;;8.10;45.68
76195;BME280;64964;48.694;21.206;2023-04-03T10:23:51;98104.09;;;8.15;44.00
76195;BME280;64964;48.694;21.206;2023-04-03T10:29:21;98105.50;;;8.10;42.86
76195;BME280;64964;48.694;21.206;2023-04-03T10:32:19;98111.06;;;8.07;43.80
76195;BME280;64964;48.694;21.206;2023-04-03T10:34:54;98110.38;;;8.22;44.78
76195;BME280;64964;48.694;21.206;2023-04-03T10:37:27;98112.09;;;8.32;44.19
76195;BME280;64964;48.694;21.206;2023-04-03T10:39:59;98117.06;;;8.53;43.90
76195;BME280;64964;48.694;21.206;2023-04-03T10:45:32;98119.53;;;8.72;43.22
76195;BME280;64964;48.694;21.206;2023-04-03T10:48:18;98119.34;;;8.65;42.21
76195;BME280;64964;48.694;21.206;2023-04-03T10:59:11;98147.06;;;8.78;42.59
76195;BME280;64964;48.694;21.206;2023-04-03T11:01:41;98159.41;;;8.77;41.89
76195;BME280;64964;48.694;21.206;2023-04-03T11:04:09;98157.66;;;8.86;43.62
76195;BME280;64964;48.694;21.206;2023-04-03T11:06:44;98158.69;;;8.67;42.03
76195;BME280;64964;48.694;21.206;2023-04-03T11:09:24;98159.69;;;8.48;42.81
76195;BME280;64964;48.694;21.206;2023-04-03T11:12:13;98147.78;;;8.08;42.58
76195;BME280;64964;48.694;21.206;2023-04-03T11:14:40;98157.44;;;7.99;43.46
76195;BME280;64964;48.694;21.206;2023-04-03T11:17:26;98166.69;;;8.21;43.75
76195;BME280;64964;48.694;21.206;2023-04-03T11:20:13;98143.06;;;8.12;43.58
76195;BME280;64964;48.694;21.206;2023-04-03T11:22:42;98159.75;;;8.03;43.84
76195;BME280;64964;48.694;21.206;2023-04-03T11:27:50;98146.81;;;8.27;42.99
76195;BME280;64964;48.694;21.206;2023-04-03T11:33:27;98147.53;;;7.84;44.00
76195;BME280;64964;48.694;21.206;2023-04-03T11:36:07;98154.47;;;7.85;43.87
76195;BME280;64964;48.694;21.206;2023-04-03T11:38:36;98153.59;;;8.12;44.88
76195;BME280;64964;48.694;21.206;2023-04-03T11:41:07;98162.25;;;8.22;43.99
76195;BME280;64964;48.694;21.206;2023-04-03T11:43:34;98157.88;;;8.31;43.89
76195;BME280;64964;48.694;21.206;2023-04-03T11:46:05;98173.59;;;8.22;42.72
76195;BME280;64964;48.694;21.206;2023-04-03T11:53:42;98176.38;;;8.21;43.00
76195;BME280;64964;48.694;21.206;2023-04-03T12:01:49;98154.34;;;8.40;43.01
76195;BME280;64964;48.694;21.206;2023-04-03T12:04:17;98155.53;;;8.63;42.87
76195;BME280;64964;48.694;21.206;2023-04-03T12:11:59;98155.53;;;9.15;40.02
76195;BME280;64964;48.694;21.206;2023-04-03T12:14:26;98167.03;;;9.06;40.17
76195;BME280;64964;48.694;21.206;2023-04-03T12:16:54;98140.38;;;8.83;40.31
76195;BME280;64964;48.694;21.206;2023-04-03T12:19:34;98159.53;;;8.93;40.22
76195;BME280;64964;48.694;21.206;2023-04-03T12:24:30;98167.50;;;9.02;41.07
76195;BME280;64964;48.694;21.206;2023-04-03T12:29:51;98168.59;;;9.17;40.03
76195;BME280;64964;48.694;21.206;2023-04-03T12:35:01;98183.25;;;9.88;40.15
76195;BME280;64964;48.694;21.206;2023-04-03T12:43:28;98186.06;;;9.52;39.16
76195;BME280;64964;48.694;21.206;2023-04-03T12:48:29;98193.94;;;8.48;40.18
76195;BME280;64964;48.694;21.206;2023-04-03T12:50:57;98189.72;;;8.55;40.53
76195;BME280;64964;48.694;21.206;2023-04-03T12:53:28;98167.44;;;8.14;39.50
76195;BME280;64964;48.694;21.206;2023-04-03T12:56:29;98176.84;;;8.16;40.10
76195;BME280;64964;48.694;21.206;2023-04-03T12:59:19;98167.75;;;7.65;41.39
76195;BME280;64964;48.694;21.206;2023-04-03T13:01:59;98188.75;;;7.01;42.27
76195;BME280;64964;48.694;21.206;2023-04-03T13:04:27;98173.44;;;6.86;43.11
76195;BME280;64964;48.694;21.206;2023-04-03T13:06:54;98175.56;;;6.44;43.21
76195;BME280;64964;48.694;21.206;2023-04-03T13:09:25;98190.91;;;6.29;44.26
76195;BME280;64964;48.694;21.206;2023-04-03T13:12:03;98174.28;;;6.09;44.60
76195;BME280;64964;48.694;21.206;2023-04-03T13:14:34;98174.72;;;5.95;44.87
76195;BME280;64964;48.694;21.206;2023-04-03T13:17:11;98171.59;;;5.70;45.51
76195;BME280;64964;48.694;21.206;2023-04-03T13:19:38;98171.44;;;5.72;45.55
76195;BME280;64964;48.694;21.206;2023-04-03T13:22:29;98168.69;;;5.73;45.94
76195;BME280;64964;48.694;21.206;2023-04-03T13:24:59;98167.41;;;5.58;45.02
76195;BME280;64964;48.694;21.206;2023-04-03T13:27:27;98196.28;;;5.28;45.17
76195;BME280;64964;48.694;21.206;2023-04-03T13:29:57;98200.03;;;5.04;45.52
76195;BME280;64964;48.694;21.206;2023-04-03T13:32:26;98190.19;;;4.75;45.88
76195;BME280;64964;48.694;21.206;2023-04-03T13:34:53;98179.28;;;4.70;46.83
76195;BME280;64964;48.694;21.206;2023-04-03T13:37:24;98177.53;;;4.60;46.66
76195;BME280;64964;48.694;21.206;2023-04-03T13:40:09;98177.53;;;4.39;47.30
76195;BME280;64964;48.694;21.206;2023-04-03T13:42:38;98174.66;;;4.42;48.12
76195;BME280;64964;48.694;21.206;2023-04-03T13:45:22;98165.50;;;4.47;47.73
76195;BME280;64964;48.694;21.206;2023-04-03T13:47:50;98169.13;;;4.35;47.83
76195;BME280;64964;48.694;21.206;2023-04-03T13:50:24;98184.69;;;4.37;47.84
76195;BME280;64964;48.694;21.206;2023-04-03T13:53:00;98180.97;;;4.18;47.19
76195;BME280;64964;48.694;21.206;2023-04-03T13:55:29;98163.22;;;4.22;47.48
76195;BME280;64964;48.694;21.206;2023-04-03T13:57:59;98171.19;;;4.20;47.46
76195;BME280;64964;48.694;21.206;2023-04-03T14:00:39;98163.94;;;4.24;48.28
76195;BME280;64964;48.694;21.206;2023-04-03T14:03:26;98156.06;;;4.24;47.51
76195;BME280;64964;48.694;21.206;2023-04-03T14:05:52;98148.81;;;4.28;48.51
76195;BME280;64964;48.694;21.206;2023-04-03T14:08:18;98149.69;;;4.17;47.37
76195;BME280;64964;48.694;21.206;2023-04-03T14:10:44;98135.50;;;3.98;47.39
76195;BME280;64964;48.694;21.206;2023-04-03T14:13:14;98142.81;;;4.05;48.13
76195;BME280;64964;48.694;21.206;2023-04-03T14:15:41;98153.44;;;3.92;47.94
76195;BME280;64964;48.694;21.206;2023-04-03T14:18:11;98158.00;;;3.79;47.81
76195;BME280;64964;48.694;21.206;2023-04-03T14:20:37;98168.53;;;3.56;48.10
76195;BME280;64964;48.694;21.206;2023-04-03T14:23:03;98174.13;;;3.52;48.84